Time,TemperatureF,DewpointF,PressureIn,WindDirection,WindDirectionDegrees,WindSpeedMPH,WindSpeedGustMPH,Humidity,HourlyPrecipIn,Conditions,Clouds,dailyrainin,SoftwareType,DateUTC
2013-03-01 00:02:00,33.8,22.5,27.00,NNW,332,3.6,3.6,63,0.00,CLR,,0.00,WeatherDisplay:10.37,2013-03-01 06:02:00,
2013-03-01 00:07:00,33.8,22.5,27.00,NNW,332,3.6,3.6,63,0.00,CLR,,0.00,WeatherDisplay:10.37,2013-03-01 06:07:00,
2013-03-01 00:12:00,33.8,22.5,27.33,NNW,332,3.6,3.6,63,0.00,CLR,,0.00,WeatherDisplay:10.37,2013-03-01 06:12:00,
2013-03-01 00:17:00,33.8,22.9,27.33,NNW,332,3.6,3.6,64,0.00,CLR,,0.00,WeatherDisplay:10.37,2013-03-01 06:17:00,
2013-03-01 00:22:00,33.8,22.9,27.33,NNW,332,3.6,3.6,64,0.00,CLR,,0.00,WeatherDisplay:10.37,2013-03-01 06:22:00,
2013-03-01 00:27:00,33.8,22.9,27.33,NNW,332,3.6,3.6,64,0.00,CLR,,0.00,WeatherDisplay:10.37,2013-03-01 06:27:00,
2013-03-01 00:32:00,33.8,22.9,27.33,NW,312,2.7,3.6,64,0.00,CLR,,0.00,WeatherDisplay:10.37,2013-03-01 06:32:00,
2013-03-01 11:56:00,37.0,21.5,30.11,North,0,4.9,5.8,53,0.00,CLR,,0.00,WeatherDisplay:10.37,2013-03-01 17:56:00,
2013-03-01 12:01:00,37.0,21.5,30.11,North,0,5.4,5.8,53,0.00,CLR,,0.00,WeatherDisplay:10.37,2013-03-01 18:01:00,
2013-03-01 12:06:00,36.9,21.3,30.11,NW,316,5.4,5.8,53,0.00,CLR,,0.00,WeatherDisplay:10.37,2013-03-01 18:06:00,
2013-03-01 12:11:00,36.7,21.1,30.11,NW,317,5.4,8.1,53,0.00,CLR,,0.00,WeatherDisplay:10.37,2013-03-01 18:11:00,
2013-03-01 12:16:00,36.5,21.0,30.11,NNW,338,4.9,5.8,53,0.00,CLR,,0.00,WeatherDisplay:10.37,2013-03-01 18:16:00,
2013-03-01 12:21:00,36.3,20.8,30.11,NNW,327,5.4,8.1,53,0.00,CLR,,0.00,WeatherDisplay:10.37,2013-03-01 18:21:00,
2013-03-01 12:26:00,36.1,21.5,30.11,NW,322,5.4,9.2,55,0.00,CLR,,0.00,WeatherDisplay:10.37,2013-03-01 18:26:00,
2013-03-01 12:31:00,36.1,21.5,30.11,NW,324,5.8,6.9,55,0.00,CLR,,0.00,WeatherDisplay:10.37,2013-03-01 18:31:00,
2013-03-01 12:36:00,36.1,21.5,30.08,WNW,297,5.8,8.1,55,0.00,CLR,,0.00,WeatherDisplay:10.37,2013-03-01 18:36:00,
2013-03-01 12:41:00,36.0,21.3,30.08,NW,325,5.4,8.7,55,0.00,CLR,,0.00,WeatherDisplay:10.37,2013-03-01 18:41:00,
2013-03-01 12:46:00,36.0,21.3,30.08,WNW,288,6.3,6.3,55,0.00,CLR,,0.00,WeatherDisplay:10.37,2013-03-01 18:46:00,
2013-03-01 12:51:00,35.8,21.2,30.08,North,353,5.4,5.8,55,0.00,CLR,,0.00,WeatherDisplay:10.37,2013-03-01 18:51:00,
2013-03-01 12:56:00,35.8,20.3,30.08,North,0,4.9,9.2,53,0.00,CLR,,0.00,WeatherDisplay:10.37,2013-03-01 18:56:00,
2013-03-01 13:01:00,35.8,20.3,30.08,NNE,16,4.5,5.8,53,0.00,CLR,,0.00,WeatherDisplay:10.37,2013-03-01 19:01:00,
2013-03-01 13:06:00,35.6,20.1,30.08,NW,317,5.4,5.8,53,0.00,CLR,,0.00,WeatherDisplay:10.37,2013-03-01 19:06:00,
2013-03-01 13:11:00,35.6,20.1,30.08,NNW,342,4.5,5.8,53,0.00,CLR,,0.00,WeatherDisplay:10.37,2013-03-01 19:11:00,
2013-03-01 13:16:00,35.4,20.0,30.08,NNW,332,4.5,5.8,53,0.00,CLR,,0.00,WeatherDisplay:10.37,2013-03-01 19:16:00,
2013-03-01 13:21:00,35.4,21.3,30.08,NW,321,7.6,9.2,56,0.00,CLR,,0.00,WeatherDisplay:10.37,2013-03-01 19:21:00,
2013-03-01 13:26:00,35.4,21.3,30.08,NW,318,4.5,5.8,56,0.00,CLR,,0.00,WeatherDisplay:10.37,2013-03-01 19:26:00,
2013-03-01 13:31:00,35.4,21.3,30.08,North,353,5.8,8.1,56,0.00,CLR,,0.00,WeatherDisplay:10.37,2013-03-01 19:31:00,
2013-03-01 13:36:00,35.6,21.0,30.08,North,350,5.4,8.1,55,0.00,CLR,,0.00,WeatherDisplay:10.37,2013-03-01 19:36:00,
2013-03-01 13:41:00,35.6,20.1,30.08,WNW,294,4.9,8.3,53,0.00,CLR,,0.00,WeatherDisplay:10.37,2013-03-01 19:41:00,
2013-03-01 13:46:00,36.1,21.5,30.08,NNW,332,5.8,9.2,55,0.00,CLR,,0.00,WeatherDisplay:10.37,2013-03-01 19:46:00,
2013-03-01 13:51:00,36.3,21.7,30.08,NNW,329,7.6,10.4,55,0.00,CLR,,0.00,WeatherDisplay:10.37,2013-03-01 19:51:00,
2013-03-01 13:56:00,36.5,21.0,30.08,NNW,344,5.8,8.1,53,0.00,CLR,,0.00,WeatherDisplay:10.37,2013-03-01 19:56:00,
2013-03-01 14:01:00,36.7,21.1,30.08,WNW,288,4.9,8.7,53,0.00,CLR,,0.00,WeatherDisplay:10.37,2013-03-01 20:01:00,
2013-03-01 14:06:00,36.7,21.1,30.08,NW,317,6.3,8.1,53,0.00,CLR,,0.00,WeatherDisplay:10.37,2013-03-01 20:06:00,
2013-03-01 14:11:00,36.5,21.0,30.08,NNW,336,5.8,5.8,53,0.00,CLR,,0.00,WeatherDisplay:10.37,2013-03-01 20:11:00,
2013-03-01 14:16:00,36.3,20.8,30.08,North,0,7.2,8.1,53,0.00,CLR,,0.00,WeatherDisplay:10.37,2013-03-01 20:16:00,
2013-03-01 14:21:00,36.5,21.0,30.08,NNW,344,4.5,5.8,53,0.00,CLR,,0.00,WeatherDisplay:10.37,2013-03-01 20:21:00,
2013-03-01 14:26:00,36.7,21.1,30.08,NNW,334,4.0,5.8,53,0.00,CLR,,0.00,WeatherDisplay:10.37,2013-03-01 20:26:00,
2013-03-01 14:31:00,36.9,21.3,30.08,North,353,6.3,8.1,53,0.00,CLR,,0.00,WeatherDisplay:10.37,2013-03-01 20:31:00,
2013-03-01 14:36:00,36.9,21.3,30.05,North,353,5.8,8.1,53,0.00,CLR,,0.00,WeatherDisplay:10.37,2013-03-01 20:36:00,
2013-03-01 14:41:00,36.9,21.3,30.05,North,353,4.5,5.8,53,0.00,CLR,,0.00,WeatherDisplay:10.37,2013-03-01 20:41:00,
2013-03-01 14:46:00,36.9,19.9,30.05,NNW,346,6.3,8.1,50,0.00,CLR,,0.00,WeatherDisplay:10.37,2013-03-01 20:46:00,
2013-03-01 14:51:00,36.7,19.8,30.08,NW,323,3.6,6.3,50,0.00,CLR,,0.00,WeatherDisplay:10.37,2013-03-01 20:51:00,
2013-03-01 14:56:00,36.7,19.8,30.08,NNW,327,6.7,9.2,50,0.00,CLR,,0.00,WeatherDisplay:10.37,2013-03-01 20:56:00,
2013-03-01 15:01:00,36.3,19.4,30.08,NNW,328,4.0,4.6,50,0.00,CLR,,0.00,WeatherDisplay:10.37,2013-03-01 21:01:00,
2013-03-01 15:06:00,36.1,19.3,30.08,NNW,332,4.5,5.8,50,0.00,CLR,,0.00,WeatherDisplay:10.37,2013-03-01 21:06:00,
2013-03-01 15:11:00,36.1,20.6,30.08,WNW,295,6.3,8.1,53,0.00,CLR,,0.00,WeatherDisplay:10.37,2013-03-01 21:11:00,
2013-03-01 15:16:00,36.1,20.6,30.08,North,357,6.7,9.2,53,0.00,CLR,,0.00,WeatherDisplay:10.37,2013-03-01 21:16:00,
2013-03-01 15:21:00,35.8,18.9,30.08,NNW,343,4.5,5.8,50,0.00,CLR,,0.00,WeatherDisplay:10.37,2013-03-01 21:21:00,
2013-03-01 15:26:00,35.6,20.1,30.08,NNW,339,7.2,11.5,53,0.00,CLR,,0.00,WeatherDisplay:10.37,2013-03-01 21:26:00,
2013-03-01 15:31:00,35.4,19.1,30.08,North,353,4.9,8.1,51,0.00,CLR,,0.00,WeatherDisplay:10.37,2013-03-01 21:31:00,
2013-03-01 15:36:00,35.6,20.1,30.08,NNW,348,5.4,8.1,53,0.00,CLR,,0.00,WeatherDisplay:10.37,2013-03-01 21:36:00,
2013-03-01 15:41:00,35.8,20.3,30.08,NW,314,5.8,8.1,53,0.00,CLR,,0.00,WeatherDisplay:10.37,2013-03-01 21:41:00,
2013-03-01 15:46:00,35.8,20.3,30.08,WNW,301,4.5,8.1,53,0.00,CLR,,0.00,WeatherDisplay:10.37,2013-03-01 21:46:00,
2013-03-01 15:51:00,36.0,20.5,30.08,NNW,340,2.7,3.5,53,0.00,CLR,,0.00,WeatherDisplay:10.37,2013-03-01 21:51:00,
2013-03-01 15:56:00,36.1,20.6,30.08,NNW,345,5.8,8.1,53,0.00,CLR,,0.00,WeatherDisplay:10.37,2013-03-01 21:56:00,
2013-03-01 16:01:00,36.1,20.6,30.08,NW,319,6.3,8.1,53,0.00,CLR,,0.00,WeatherDisplay:10.37,2013-03-01 22:01:00,
2013-03-01 16:06:00,36.1,20.6,30.08,NW,326,6.3,8.1,53,0.00,CLR,,0.00,WeatherDisplay:10.37,2013-03-01 22:06:00,
2013-03-01 16:11:00,36.3,20.8,30.08,NNW,340,4.0,5.8,53,0.00,CLR,,0.00,WeatherDisplay:10.37,2013-03-01 22:11:00,
2013-03-01 16:16:00,36.3,20.8,30.08,WNW,302,2.7,6.3,53,0.00,CLR,,0.00,WeatherDisplay:10.37,2013-03-01 22:16:00,
2013-03-01 16:21:00,36.5,21.0,30.08,NNW,340,4.0,5.8,53,0.00,CLR,,0.00,WeatherDisplay:10.37,2013-03-01 22:21:00,
2013-03-01 16:26:00,36.3,20.8,30.08,North,349,4.0,8.7,53,0.00,CLR,,0.00,WeatherDisplay:10.37,2013-03-01 22:26:00,
2013-03-01 16:31:00,36.1,20.6,30.08,NNW,340,7.2,9.2,53,0.00,CLR,,0.00,WeatherDisplay:10.37,2013-03-01 22:31:00,
2013-03-01 16:36:00,36.1,20.6,30.08,NNW,343,5.4,5.8,53,0.00,CLR,,0.00,WeatherDisplay:10.37,2013-03-01 22:36:00,
2013-03-01 16:41:00,36.1,21.5,30.08,WNW,298,4.5,5.8,55,0.00,CLR,,0.00,WeatherDisplay:10.37,2013-03-01 22:41:00,
2013-03-01 16:46:00,36.0,20.5,30.08,NW,319,5.4,5.8,53,0.00,CLR,,0.00,WeatherDisplay:10.37,2013-03-01 22:46:00,
2013-03-01 16:51:00,35.8,20.3,30.08,NW,326,5.8,8.1,53,0.00,CLR,,0.00,WeatherDisplay:10.37,2013-03-01 22:51:00,
2013-03-01 16:56:00,35.6,20.1,30.08,NNW,348,8.0,10.4,53,0.00,CLR,,0.00,WeatherDisplay:10.37,2013-03-01 22:56:00,
2013-03-01 17:01:00,35.4,21.3,30.08,NNW,342,4.9,8.1,56,0.00,CLR,,0.00,WeatherDisplay:10.37,2013-03-01 23:01:00,
2013-03-01 17:06:00,35.2,21.1,30.08,NW,319,3.6,5.8,56,0.00,CLR,,0.00,WeatherDisplay:10.37,2013-03-01 23:06:00,
2013-03-01 17:11:00,35.1,20.9,30.08,NW,314,5.4,6.9,56,0.00,CLR,,0.00,WeatherDisplay:10.37,2013-03-01 23:11:00,
2013-03-01 17:16:00,34.9,20.8,30.08,WNW,298,7.2,8.1,56,0.00,CLR,,0.00,WeatherDisplay:10.37,2013-03-01 23:16:00,
2013-03-01 17:21:00,34.5,20.4,30.08,NW,316,4.9,5.8,56,0.00,CLR,,0.00,WeatherDisplay:10.37,2013-03-01 23:21:00,
2013-03-01 17:26:00,34.3,20.3,30.08,North,353,3.6,5.8,56,0.00,CLR,,0.00,WeatherDisplay:10.37,2013-03-01 23:26:00,
2013-03-01 17:31:00,34.2,20.1,30.08,NNW,337,4.5,8.1,56,0.00,CLR,,0.00,WeatherDisplay:10.37,2013-03-01 23:31:00,
2013-03-01 17:36:00,34.0,19.9,30.11,North,0,4.9,5.8,56,0.00,CLR,,0.00,WeatherDisplay:10.37,2013-03-01 23:36:00,
2013-03-01 17:41:00,33.8,19.7,30.11,North,353,4.9,8.1,56,0.00,CLR,,0.00,WeatherDisplay:10.37,2013-03-01 23:41:00,
2013-03-01 17:46:00,33.6,19.6,30.11,NNW,331,4.5,5.8,56,0.00,CLR,,0.00,WeatherDisplay:10.37,2013-03-01 23:46:00,
2013-03-01 17:51:00,33.4,19.8,30.11,WNW,301,5.8,8.1,57,0.00,CLR,,0.00,WeatherDisplay:10.37,2013-03-01 23:51:00,
2013-03-01 17:56:00,33.3,19.7,30.11,North,357,3.1,5.8,57,0.00,CLR,,0.00,WeatherDisplay:10.37,2013-03-01 23:56:00,
2013-03-01 18:01:00,33.1,19.5,30.11,NW,317,2.7,5.8,57,0.00,CLR,,0.00,WeatherDisplay:10.37,2013-03-02 00:01:00,
2013-03-01 18:06:00,33.1,19.5,30.11,NW,319,3.6,5.8,57,0.00,CLR,,0.00,WeatherDisplay:10.37,2013-03-02 00:06:00,
2013-03-01 18:11:00,33.1,19.5,30.11,NW,305,5.4,9.2,57,0.00,CLR,,0.00,WeatherDisplay:10.37,2013-03-02 00:11:00,
2013-03-01 18:16:00,32.9,19.7,30.11,NNW,332,3.1,6.9,58,0.00,CLR,,0.00,WeatherDisplay:10.37,2013-03-02 00:16:00,
2013-03-01 18:22:00,32.7,19.6,30.11,NW,324,4.0,5.8,58,0.00,CLR,,0.00,WeatherDisplay:10.37,2013-03-02 00:22:00,
2013-03-01 18:27:00,32.7,19.6,30.11,NW,325,6.3,8.1,58,0.00,CLR,,0.00,WeatherDisplay:10.37,2013-03-02 00:27:00,
2013-03-01 18:32:00,32.7,20.0,30.11,WNW,300,5.4,5.8,59,0.00,CLR,,0.00,WeatherDisplay:10.37,2013-03-02 00:32:00,
2013-03-01 18:37:00,32.7,20.0,30.11,WNW,284,4.0,5.8,59,0.00,CLR,,0.00,WeatherDisplay:10.37,2013-03-02 00:37:00,
2013-03-01 18:42:00,32.7,20.0,30.11,NW,315,4.0,5.8,59,0.00,CLR,,0.00,WeatherDisplay:10.37,2013-03-02 00:42:00,
2013-03-01 18:47:00,32.5,20.2,30.11,NW,320,4.5,5.8,60,0.00,CLR,,0.00,WeatherDisplay:10.37,2013-03-02 00:47:00,
2013-03-01 18:52:00,32.5,20.2,30.14,WNW,294,3.6,5.8,60,0.00,CLR,,0.00,WeatherDisplay:10.37,2013-03-02 00:52:00,
2013-03-01 18:57:00,32.5,20.2,30.14,NNW,344,4.5,5.8,60,0.00,CLR,,0.00,WeatherDisplay:10.37,2013-03-02 00:57:00,
2013-03-01 19:02:00,32.5,20.2,30.14,WNW,298,3.6,4.0,60,0.00,CLR,,0.00,WeatherDisplay:10.37,2013-03-02 01:02:00,
2013-03-01 19:07:00,32.5,20.2,30.14,NW,325,2.7,5.8,60,0.00,CLR,,0.00,WeatherDisplay:10.37,2013-03-02 01:07:00,
2013-03-01 19:12:00,32.5,20.2,30.14,NNW,337,4.9,6.9,60,0.00,CLR,,0.00,WeatherDisplay:10.37,2013-03-02 01:12:00,
2013-03-01 19:17:00,32.5,20.2,30.14,NW,316,2.7,4.6,60,0.00,CLR,,0.00,WeatherDisplay:10.37,2013-03-02 01:17:00,
2013-03-01 19:22:00,32.4,20.0,30.14,NW,323,5.4,5.8,60,0.00,CLR,,0.00,WeatherDisplay:10.37,2013-03-02 01:22:00,
2013-03-01 19:27:00,32.4,20.0,30.14,NNW,329,4.5,4.6,60,0.00,CLR,,0.00,WeatherDisplay:10.37,2013-03-02 01:27:00,
2013-03-01 19:32:00,32.4,20.0,30.14,WNW,295,4.0,5.8,60,0.00,CLR,,0.00,WeatherDisplay:10.37,2013-03-02 01:32:00,
2013-03-01 19:37:00,32.2,19.8,30.14,NW,323,4.0,5.8,60,0.00,CLR,,0.00,WeatherDisplay:10.37,2013-03-02 01:37:00,
2013-03-01 19:42:00,32.2,19.8,30.14,North,2,4.9,8.1,60,0.00,CLR,,0.00,WeatherDisplay:10.37,2013-03-02 01:42:00,
2013-03-01 19:47:00,32.0,19.7,30.14,NW,314,4.9,5.8,60,0.00,CLR,,0.00,WeatherDisplay:10.37,2013-03-02 01:47:00,
2013-03-01 19:52:00,32.0,20.1,30.14,West,267,4.0,4.6,61,0.00,CLR,,0.00,WeatherDisplay:10.37,2013-03-02 01:52:00,
2013-03-01 19:57:00,31.8,19.9,30.14,NW,316,3.1,3.5,61,0.00,CLR,,0.00,WeatherDisplay:10.37,2013-03-02 01:57:00,
2013-03-01 20:02:00,31.8,20.3,30.14,NNW,335,5.4,5.8,62,0.00,CLR,,0.00,WeatherDisplay:10.37,2013-03-02 02:02:00,
2013-03-01 20:07:00,31.6,20.1,30.14,NW,324,4.0,5.8,62,0.00,CLR,,0.00,WeatherDisplay:10.37,2013-03-02 02:07:00,
2013-03-01 20:12:00,31.6,20.1,30.14,NW,322,3.6,4.9,62,0.00,CLR,,0.00,WeatherDisplay:10.37,2013-03-02 02:12:00,
2013-03-01 20:17:00,31.5,19.9,30.14,WNW,294,3.1,4.6,62,0.00,CLR,,0.00,WeatherDisplay:10.37,2013-03-02 02:17:00,
2013-03-01 20:22:00,31.5,20.3,30.14,NW,308,3.6,3.6,63,0.00,CLR,,0.00,WeatherDisplay:10.37,2013-03-02 02:22:00,
2013-03-01 20:27:00,31.3,20.1,30.14,NW,319,3.6,5.8,63,0.00,CLR,,0.00,WeatherDisplay:10.37,2013-03-02 02:27:00,
2013-03-01 20:32:00,31.3,20.5,30.14,NW,324,3.1,3.5,64,0.00,CLR,,0.00,WeatherDisplay:10.37,2013-03-02 02:32:00,
2013-03-01 20:37:00,31.3,20.5,30.14,NW,317,4.0,5.8,64,0.00,CLR,,0.00,WeatherDisplay:10.37,2013-03-02 02:37:00,
2013-03-01 20:42:00,31.3,20.5,30.14,West,270,4.9,5.8,64,0.00,CLR,,0.00,WeatherDisplay:10.37,2013-03-02 02:42:00,
2013-03-01 20:47:00,31.3,20.9,30.14,WNW,301,2.7,3.5,65,0.00,CLR,,0.00,WeatherDisplay:10.37,2013-03-02 02:47:00,
2013-03-01 20:52:00,31.3,21.2,30.14,NW,307,4.0,4.6,66,0.00,CLR,,0.00,WeatherDisplay:10.37,2013-03-02 02:52:00,
2013-03-01 20:57:00,31.3,21.2,30.14,NW,317,3.6,5.8,66,0.00,CLR,,0.00,WeatherDisplay:10.37,2013-03-02 02:57:00,
2013-03-01 21:02:00,31.3,21.2,30.14,NW,314,2.7,4.0,66,0.00,CLR,,0.00,WeatherDisplay:10.37,2013-03-02 03:02:00,
2013-03-01 21:07:00,31.3,21.2,30.11,NNW,339,4.0,5.8,66,0.00,CLR,,0.00,WeatherDisplay:10.37,2013-03-02 03:07:00,
2013-03-01 21:12:00,31.3,21.2,30.11,North,353,3.6,4.0,66,0.00,CLR,,0.00,WeatherDisplay:10.37,2013-03-02 03:12:00,
2013-03-01 21:17:00,31.5,21.4,30.11,NNW,331,4.0,5.8,66,0.00,CLR,,0.00,WeatherDisplay:10.37,2013-03-02 03:17:00,
2013-03-01 21:22:00,31.5,21.4,30.14,NW,317,3.1,5.8,66,0.00,CLR,,0.00,WeatherDisplay:10.37,2013-03-02 03:22:00,
2013-03-01 21:27:00,31.6,21.6,30.14,WNW,302,3.1,3.5,66,0.00,CLR,,0.00,WeatherDisplay:10.37,2013-03-02 03:27:00,